Time;durP1;ratioP1;P1;durP2;ratioP2;P2;SDS_P1;SDS_P2;PMS_P1;PMS_P2;Temp;Humidity;BMP_temperature;BMP_pressure;BME280_temperature;BME280_humidity;BME280_pressure;Samples;Min_cycle;Max_cycle;Signal;HPM_P1;HPM_P2
2023/05/28 00:00:27;;;;;;;4.50;2.90;;;9.70;64.50;;;;;;5075212;28;20432;-78
2023/05/28 00:02:53;;;;;;;3.97;3.30;;;9.70;64.60;;;;;;5093225;28;20028;-79
2023/05/28 00:05:18;;;;;;;3.88;2.40;;;9.60;64.70;;;;;;5093256;28;20487;-81
2023/05/28 00:07:44;;;;;;;4.05;2.65;;;9.60;64.80;;;;;;5093695;28;20039;-79
2023/05/28 00:10:10;;;;;;;3.35;2.65;;;9.60;64.70;;;;;;5092951;28;20054;-79
2023/05/28 00:12:36;;;;;;;3.78;2.30;;;9.60;64.90;;;;;;5075116;28;20028;-79
2023/05/28 00:15:02;;;;;;;5.15;2.80;;;9.50;64.70;;;;;;5093133;28;20028;-79
2023/05/28 00:17:28;;;;;;;3.83;2.50;;;9.50;64.80;;;;;;5093066;28;20035;-82
2023/05/28 00:19:53;;;;;;;5.90;2.22;;;9.50;64.80;;;;;;5075020;28;20031;-82
2023/05/28 00:22:19;;;;;;;4.78;2.28;;;9.50;64.90;;;;;;5093045;28;20074;-82
2023/05/28 00:24:45;;;;;;;3.80;2.40;;;9.50;65.20;;;;;;5093050;28;20027;-79
2023/05/28 00:27:10;;;;;;;3.08;2.30;;;9.50;65.20;;;;;;5092952;28;20036;-78
2023/05/28 00:29:36;;;;;;;5.07;2.10;;;9.50;65.10;;;;;;5093029;28;20023;-81
2023/05/28 00:32:02;;;;;;;4.18;2.47;;;9.50;65.10;;;;;;5093029;28;20027;-79
2023/05/28 00:34:27;;;;;;;2.67;2.17;;;9.50;65.10;;;;;;5074889;28;20024;-78
2023/05/28 00:36:53;;;;;;;4.93;2.35;;;9.40;64.90;;;;;;5092860;28;20012;-78
2023/05/28 00:39:19;;;;;;;7.95;3.30;;;9.40;65.20;;;;;;5092973;28;20024;-78
2023/05/28 00:41:45;;;;;;;3.97;2.47;;;9.40;65.30;;;;;;5092847;28;20023;-79
2023/05/28 00:44:12;;;;;;;5.65;2.67;;;9.40;65.00;;;;;;5092927;28;20150;-81
2023/05/28 00:46:42;;;;;;;4.45;2.60;;;9.40;64.90;;;;;;5074604;28;20044;-78
2023/05/28 00:49:10;;;;;;;6.00;2.63;;;9.30;64.90;;;;;;5074739;28;20016;-78
2023/05/28 00:51:36;;;;;;;4.10;2.40;;;9.30;65.10;;;;;;5093063;28;20039;-78
2023/05/28 00:54:03;;;;;;;4.97;2.20;;;9.30;65.40;;;;;;5078377;28;20111;-81
2023/05/28 00:56:29;;;;;;;3.20;2.03;;;9.20;64.80;;;;;;5078206;28;20032;-78
2023/05/28 00:58:55;;;;;;;3.33;2.50;;;9.20;64.90;;;;;;5078347;28;20073;-78
2023/05/28 01:01:24;;;;;;;4.95;2.28;;;9.20;64.70;;;;;;5096437;28;20031;-78
2023/05/28 01:03:51;;;;;;;3.50;1.80;;;9.20;64.50;;;;;;5096425;28;20107;-82
2023/05/28 01:06:20;;;;;;;7.88;2.20;;;9.20;64.50;;;;;;5078078;28;20032;-78
2023/05/28 01:08:46;;;;;;;3.50;1.98;;;9.30;64.60;;;;;;5077906;28;20385;-81
2023/05/28 01:11:16;;;;;;;3.55;2.20;;;9.20;64.50;;;;;;5078067;28;20031;-82
2023/05/28 01:13:42;;;;;;;3.22;1.90;;;9.30;64.70;;;;;;5096205;28;20456;-81
2023/05/28 01:16:09;;;;;;;5.72;2.65;;;9.20;64.50;;;;;;5096229;28;20024;-78
2023/05/28 01:18:37;;;;;;;3.28;2.60;;;9.20;64.40;;;;;;5096188;28;20085;-78
2023/05/28 01:21:03;;;;;;;4.43;2.63;;;9.20;64.50;;;;;;5077960;28;20012;-78
2023/05/28 01:23:29;;;;;;;4.88;2.10;;;9.20;64.50;;;;;;5077779;28;20028;-78
2023/05/28 01:25:56;;;;;;;6.35;2.28;;;9.10;64.50;;;;;;5095679;28;20032;-81
2023/05/28 01:28:22;;;;;;;4.63;2.35;;;9.10;64.60;;;;;;5077751;28;20025;-81
2023/05/28 01:30:48;;;;;;;3.50;2.10;;;9.10;64.70;;;;;;5095899;28;20062;-82
2023/05/28 01:33:15;;;;;;;5.38;2.72;;;9.10;64.90;;;;;;5077672;28;20048;-82
2023/05/28 01:35:42;;;;;;;3.63;1.92;;;9.10;65.10;;;;;;5077697;28;20028;-83
2023/05/28 01:38:10;;;;;;;3.03;1.80;;;9.00;65.00;;;;;;5077502;28;20028;-83
2023/05/28 01:40:38;;;;;;;4.28;2.75;;;9.10;65.30;;;;;;5077534;28;20047;-79
2023/05/28 01:43:04;;;;;;;3.67;2.03;;;9.00;65.50;;;;;;5077472;28;20024;-79
2023/05/28 01:45:30;;;;;;;4.18;2.25;;;9.00;65.70;;;;;;5095459;28;20109;-78
2023/05/28 01:47:56;;;;;;;2.40;2.05;;;9.00;66.10;;;;;;5095585;28;20028;-82
2023/05/28 01:50:22;;;;;;;4.20;2.10;;;8.90;66.40;;;;;;5095506;28;20079;-82
2023/05/28 01:52:48;;;;;;;6.15;2.60;;;8.80;66.60;;;;;;5077263;28;20080;-79
2023/05/28 01:55:14;;;;;;;5.65;2.75;;;8.70;66.70;;;;;;5095475;28;20024;-82
2023/05/28 01:57:40;;;;;;;3.05;1.95;;;8.70;67.10;;;;;;5077220;28;20031;-82
2023/05/28 02:00:07;;;;;;;3.28;2.25;;;8.60;68.10;;;;;;5077215;28;20020;-79
2023/05/28 02:02:34;;;;;;;4.32;2.10;;;8.50;68.10;;;;;;5077140;28;20073;-79
2023/05/28 02:04:59;;;;;;;2.97;2.20;;;8.50;68.50;;;;;;5076486;28;20381;-82
2023/05/28 02:07:25;;;;;;;3.67;2.33;;;8.40;69.60;;;;;;5076818;28;20028;-80
2023/05/28 02:09:51;;;;;;;4.40;2.15;;;8.40;71.00;;;;;;5095021;28;20060;-82
2023/05/28 02:12:16;;;;;;;5.53;2.13;;;8.30;71.10;;;;;;5095194;28;20470;-82
2023/05/28 02:14:43;;;;;;;5.82;2.67;;;8.30;71.40;;;;;;5076964;28;20070;-78
2023/05/28 02:17:09;;;;;;;4.63;3.00;;;8.30;71.50;;;;;;5076878;28;20050;-82
2023/05/28 02:19:35;;;;;;;6.40;2.38;;;8.20;71.00;;;;;;5094980;28;20024;-82
2023/05/28 02:22:01;;;;;;;4.03;2.33;;;8.20;70.90;;;;;;5076674;28;20117;-78
2023/05/28 02:24:27;;;;;;;3.65;2.15;;;8.20;70.90;;;;;;5094977;28;20055;-78
2023/05/28 02:26:53;;;;;;;2.70;2.33;;;8.20;70.80;;;;;;5076557;28;20090;-78
2023/05/28 02:29:19;;;;;;;4.35;2.30;;;8.10;70.80;;;;;;5076682;28;20024;-78
2023/05/28 02:31:44;;;;;;;3.35;1.98;;;8.00;70.70;;;;;;5094655;28;20451;-82
2023/05/28 02:34:10;;;;;;;4.72;2.17;;;8.00;70.90;;;;;;5076452;28;20008;-78
2023/05/28 02:36:36;;;;;;;3.42;2.22;;;7.90;71.20;;;;;;5062824;28;20052;-79
2023/05/28 02:39:02;;;;;;;3.78;2.17;;;7.90;71.50;;;;;;5074320;28;20021;-78
2023/05/28 02:41:27;;;;;;;3.95;2.08;;;7.80;71.40;;;;;;5055806;28;20084;-83
2023/05/28 02:43:53;;;;;;;4.50;1.95;;;7.90;71.70;;;;;;5056395;28;20428;-84
2023/05/28 02:46:19;;;;;;;3.28;2.10;;;7.90;71.70;;;;;;5055966;28;20048;-83
2023/05/28 02:48:45;;;;;;;5.93;1.98;;;7.90;71.60;;;;;;5056185;28;20017;-78
2023/05/28 02:51:11;;;;;;;2.97;2.63;;;7.90;71.60;;;;;;5074094;28;20025;-83
2023/05/28 02:53:37;;;;;;;6.75;2.25;;;7.90;71.60;;;;;;5073998;28;20021;-82
2023/05/28 02:56:03;;;;;;;3.63;2.00;;;7.80;71.80;;;;;;5074025;28;20060;-84
2023/05/28 02:58:30;;;;;;;2.40;1.80;;;7.80;72.10;;;;;;5055290;28;20056;-79
2023/05/28 03:00:56;;;;;;;4.65;1.80;;;7.90;72.30;;;;;;5056067;28;20484;-78
2023/05/28 03:03:21;;;;;;;4.18;1.80;;;7.90;72.40;;;;;;5073739;28;20135;-78
2023/05/28 03:05:48;;;;;;;4.38;2.38;;;7.90;72.80;;;;;;5055729;28;20032;-82
2023/05/28 03:08:14;;;;;;;2.30;2.10;;;7.90;72.50;;;;;;5055854;28;20027;-83
2023/05/28 03:10:39;;;;;;;2.42;1.95;;;8.00;72.50;;;;;;5073561;28;20131;-81
2023/05/28 03:13:05;;;;;;;2.25;2.05;;;8.00;73.30;;;;;;5055089;28;20371;-78
2023/05/28 03:15:31;;;;;;;2.17;1.98;;;8.00;73.60;;;;;;5072669;28;20079;-79
2023/05/28 03:17:57;;;;;;;4.80;2.15;;;8.00;72.50;;;;;;5063227;28;20024;-82
2023/05/28 03:20:23;;;;;;;4.40;2.40;;;8.00;72.50;;;;;;5075707;28;20535;-79
2023/05/28 03:22:54;;;;;;;1.98;1.77;;;8.10;72.50;;;;;;5075577;28;20044;-83
2023/05/28 03:25:20;;;;;;;2.20;1.98;;;8.20;71.90;;;;;;5075569;28;20043;-80
2023/05/28 03:27:45;;;;;;;5.03;1.95;;;8.30;71.40;;;;;;5092949;28;20039;-82
2023/05/28 03:30:11;;;;;;;5.68;2.30;;;8.40;70.80;;;;;;5093960;28;20032;-83
2023/05/28 03:32:37;;;;;;;5.05;1.80;;;8.60;70.70;;;;;;5093529;28;20386;-83
2023/05/28 03:35:03;;;;;;;3.05;1.92;;;8.80;70.60;;;;;;5093576;28;20020;-82
2023/05/28 03:37:29;;;;;;;2.35;1.83;;;8.90;69.10;;;;;;5093419;28;20595;-82
2023/05/28 03:39:54;;;;;;;5.05;2.13;;;9.10;68.40;;;;;;5075011;28;20024;-82
2023/05/28 03:42:20;;;;;;;3.50;2.20;;;9.20;68.10;;;;;;5074712;28;20073;-79
2023/05/28 03:44:46;;;;;;;5.50;1.95;;;9.30;67.70;;;;;;5075410;28;20024;-78
2023/05/28 03:47:12;;;;;;;4.50;2.35;;;9.50;67.50;;;;;;5075332;28;20036;-82
2023/05/28 03:49:38;;;;;;;2.47;1.70;;;9.60;66.60;;;;;;5093458;28;20035;-79
2023/05/28 03:52:04;;;;;;;4.70;2.42;;;9.80;66.50;;;;;;5093553;28;20818;-79
2023/05/28 03:54:30;;;;;;;4.13;2.20;;;9.90;66.70;;;;;;5093326;28;20511;-81
2023/05/28 03:56:55;;;;;;;2.50;2.22;;;10.10;66.60;;;;;;5092858;28;20016;-82
2023/05/28 03:59:21;;;;;;;3.85;1.88;;;10.20;65.40;;;;;;5075135;28;20020;-78
2023/05/28 04:01:47;;;;;;;3.15;1.85;;;10.20;65.00;;;;;;5075154;28;20054;-82
2023/05/28 04:04:12;;;;;;;3.88;2.22;;;10.30;64.80;;;;;;5075204;28;20020;-81
2023/05/28 04:06:38;;;;;;;6.55;2.17;;;10.30;64.60;;;;;;5093168;28;20068;-80
2023/05/28 04:09:04;;;;;;;6.47;2.33;;;10.40;64.40;;;;;;5074963;28;20051;-82
2023/05/28 04:11:30;;;;;;;3.42;2.00;;;10.50;64.20;;;;;;5074470;28;20039;-80
2023/05/28 04:13:56;;;;;;;2.35;1.63;;;10.60;64.00;;;;;;5093293;28;20028;-80
2023/05/28 04:16:23;;;;;;;4.25;2.42;;;10.70;64.10;;;;;;5074947;28;20028;-82
2023/05/28 04:18:52;;;;;;;4.68;1.95;;;10.80;63.70;;;;;;5075069;28;20032;-82
2023/05/28 04:21:20;;;;;;;3.20;2.25;;;10.90;64.20;;;;;;5093039;28;20016;-82
2023/05/28 04:23:46;;;;;;;2.92;2.22;;;10.90;63.50;;;;;;5074997;28;20024;-82
2023/05/28 04:26:12;;;;;;;3.03;2.03;;;10.90;63.10;;;;;;5074378;28;20036;-79
2023/05/28 04:28:38;;;;;;;3.15;2.33;;;10.90;63.00;;;;;;5096562;28;20023;-82
2023/05/28 04:31:04;;;;;;;4.75;1.95;;;11.00;62.90;;;;;;5097158;28;20028;-81
2023/05/28 04:33:30;;;;;;;2.75;2.13;;;11.20;62.80;;;;;;5078873;28;20024;-82
2023/05/28 04:35:57;;;;;;;3.70;2.47;;;11.20;63.60;;;;;;5078750;28;20024;-79
2023/05/28 04:38:22;;;;;;;4.15;2.20;;;11.40;62.70;;;;;;5078667;28;20419;-80
2023/05/28 04:40:49;;;;;;;3.90;2.45;;;11.40;62.00;;;;;;5096374;28;20024;-79
2023/05/28 04:43:15;;;;;;;4.22;2.13;;;11.40;62.40;;;;;;5078748;28;20024;-79
2023/05/28 04:45:42;;;;;;;4.05;2.35;;;11.40;62.00;;;;;;5078503;28;20024;-79
2023/05/28 04:48:09;;;;;;;3.47;2.20;;;11.50;62.40;;;;;;5078545;28;20495;-79
2023/05/28 04:50:35;;;;;;;4.15;2.25;;;11.50;62.00;;;;;;5078527;28;20477;-77
2023/05/28 04:53:01;;;;;;;7.10;2.10;;;11.50;62.30;;;;;;5096614;28;20020;-79
2023/05/28 04:55:27;;;;;;;3.97;2.15;;;11.50;62.10;;;;;;5096118;28;20031;-79
2023/05/28 04:57:53;;;;;;;6.68;2.03;;;11.50;62.20;;;;;;5096533;28;20016;-76
2023/05/28 05:00:19;;;;;;;5.85;2.45;;;11.40;62.40;;;;;;5078437;28;20023;-77
2023/05/28 05:02:44;;;;;;;3.92;2.38;;;11.40;62.20;;;;;;5096081;28;20024;-79
2023/05/28 05:05:11;;;;;;;3.83;2.47;;;11.50;62.40;;;;;;5078263;28;20542;-80
2023/05/28 05:07:37;;;;;;;4.35;2.08;;;11.60;62.80;;;;;;5078084;28;20036;-76
2023/05/28 05:10:13;;;;;;;4.75;2.35;;;11.60;62.80;;;;;;5095702;28;20400;-80
2023/05/28 05:12:39;;;;;;;2.55;1.83;;;11.70;63.20;;;;;;5096255;28;20034;-77
2023/05/28 05:15:05;;;;;;;6.18;2.65;;;11.70;62.90;;;;;;5096154;28;20031;-76
2023/05/28 05:17:32;;;;;;;3.83;2.40;;;11.80;63.10;;;;;;5077898;28;20424;-80
2023/05/28 05:19:58;;;;;;;8.20;2.13;;;11.80;62.40;;;;;;5095326;28;20028;-76
2023/05/28 05:22:23;;;;;;;4.40;2.13;;;11.70;63.10;;;;;;5095801;28;20024;-77
2023/05/28 05:24:50;;;;;;;7.95;2.13;;;11.80;63.70;;;;;;5057197;28;20561;-76
2023/05/28 05:27:16;;;;;;;4.25;2.10;;;11.90;64.20;;;;;;5057528;28;20124;-76
2023/05/28 05:29:42;;;;;;;7.22;2.30;;;11.90;63.70;;;;;;5075567;28;20107;-79
2023/05/28 05:32:09;;;;;;;4.82;2.03;;;12.00;63.50;;;;;;5057527;28;20020;-76
2023/05/28 05:34:35;;;;;;;5.07;2.75;;;12.10;64.30;;;;;;5075535;28;20052;-76
2023/05/28 05:37:01;;;;;;;2.83;2.40;;;12.20;63.70;;;;;;5075378;28;20056;-77
2023/05/28 05:39:27;;;;;;;3.75;2.17;;;12.30;64.10;;;;;;5074451;28;20035;-77
2023/05/28 05:41:53;;;;;;;4.93;2.33;;;12.30;64.00;;;;;;5057513;28;20070;-80
2023/05/28 05:44:18;;;;;;;4.25;2.25;;;12.50;63.70;;;;;;5076573;28;20436;-78
2023/05/28 05:46:44;;;;;;;11.93;2.45;;;12.50;63.60;;;;;;5057231;28;20033;-81
2023/05/28 05:49:10;;;;;;;6.45;2.55;;;12.60;63.40;;;;;;5057341;28;20033;-81
2023/05/28 05:51:36;;;;;;;7.28;2.08;;;12.70;62.70;;;;;;5057236;28;20060;-78
2023/05/28 05:54:02;;;;;;;6.75;2.42;;;12.80;62.80;;;;;;5075185;28;20087;-83
2023/05/28 05:56:28;;;;;;;5.43;2.15;;;12.90;62.60;;;;;;5086097;28;20024;-78
2023/05/28 05:58:54;;;;;;;4.55;1.90;;;12.90;61.90;;;;;;5088134;28;20062;-80
2023/05/28 06:01:21;;;;;;;7.10;2.30;;;13.10;61.90;;;;;;5067593;28;20035;-78
2023/05/28 06:03:46;;;;;;;7.05;2.45;;;13.20;61.20;;;;;;5094889;28;20465;-78
2023/05/28 06:06:12;;;;;;;3.38;2.13;;;13.30;61.90;;;;;;5076522;28;20031;-79
2023/05/28 06:08:39;;;;;;;3.70;2.20;;;13.50;62.20;;;;;;5093179;28;20446;-81
2023/05/28 06:11:05;;;;;;;4.28;1.45;;;13.60;60.30;;;;;;5094756;28;20415;-79
2023/05/28 06:13:31;;;;;;;7.10;1.95;;;13.70;59.60;;;;;;5094940;28;20028;-81
2023/05/28 06:15:57;;;;;;;4.70;2.00;;;13.90;60.30;;;;;;5094863;28;20056;-78
2023/05/28 06:18:23;;;;;;;6.15;2.17;;;13.90;59.00;;;;;;5094380;28;20052;-78
2023/05/28 06:20:49;;;;;;;4.70;2.15;;;14.00;59.30;;;;;;5071302;28;20115;-78
2023/05/28 06:23:16;;;;;;;4.40;1.90;;;14.20;59.30;;;;;;5073064;28;20214;-82
2023/05/28 06:25:43;;;;;;;5.43;1.73;;;14.40;59.40;;;;;;5092359;28;20089;-82
2023/05/28 06:28:10;;;;;;;4.88;2.13;;;14.40;58.60;;;;;;5074195;28;20025;-78
2023/05/28 06:30:35;;;;;;;7.20;1.95;;;14.60;58.40;;;;;;5071874;28;20039;-78
2023/05/28 06:33:01;;;;;;;3.67;1.52;;;14.70;58.80;;;;;;5092908;28;20040;-81
2023/05/28 06:35:27;;;;;;;5.35;1.80;;;15.00;58.00;;;;;;5093911;28;20058;-82
2023/05/28 06:37:52;;;;;;;2.22;1.92;;;15.20;57.00;;;;;;5093493;28;20389;-78
2023/05/28 06:40:18;;;;;;;3.15;1.52;;;15.20;55.00;;;;;;5092514;28;20035;-82
2023/05/28 06:42:44;;;;;;;3.17;1.90;;;15.20;54.40;;;;;;5091763;28;20012;-82
2023/05/28 06:45:10;;;;;;;2.78;1.63;;;15.10;54.80;;;;;;5074099;28;20123;-82
2023/05/28 06:47:36;;;;;;;6.20;1.98;;;15.20;55.00;;;;;;5073956;28;20028;-81
2023/05/28 06:50:02;;;;;;;3.70;2.03;;;15.20;54.70;;;;;;5091982;28;20031;-78
2023/05/28 06:52:27;;;;;;;4.70;1.63;;;15.40;53.60;;;;;;5073872;28;20017;-81
2023/05/28 06:54:53;;;;;;;5.90;1.67;;;15.50;55.00;;;;;;5094136;28;20109;-82
2023/05/28 06:57:18;;;;;;;2.00;1.35;;;15.50;54.70;;;;;;5094041;28;20024;-82
2023/05/28 06:59:44;;;;;;;1.85;1.38;;;15.50;54.30;;;;;;5075851;28;20542;-81
2023/05/28 07:02:10;;;;;;;4.57;1.60;;;15.50;53.70;;;;;;5076048;28;20035;-81
2023/05/28 07:04:37;;;;;;;5.85;2.22;;;15.60;54.10;;;;;;5075976;28;20031;-81
2023/05/28 07:07:03;;;;;;;3.03;1.48;;;15.70;54.30;;;;;;5075819;28;20059;-78
2023/05/28 07:09:29;;;;;;;6.93;1.73;;;15.80;53.50;;;;;;5093842;28;20196;-78
2023/05/28 07:11:55;;;;;;;2.28;1.20;;;15.80;53.60;;;;;;5075790;28;20027;-81
2023/05/28 07:14:20;;;;;;;4.22;1.80;;;15.90;53.30;;;;;;5075887;28;20423;-81
2023/05/28 07:16:46;;;;;;;4.13;1.25;;;15.90;53.00;;;;;;5093791;28;20409;-80
2023/05/28 07:19:12;;;;;;;6.70;1.35;;;16.10;52.00;;;;;;5075778;28;20058;-81
2023/05/28 07:21:38;;;;;;;1.83;1.30;;;16.20;51.50;;;;;;5075604;28;20043;-80
2023/05/28 07:24:05;;;;;;;3.33;1.20;;;16.40;52.60;;;;;;5093824;28;20417;-83
2023/05/28 07:26:31;;;;;;;2.97;1.77;;;16.40;50.90;;;;;;5093548;28;20034;-83
2023/05/28 07:28:57;;;;;;;3.28;1.48;;;16.50;50.90;;;;;;5075556;28;20023;-83
2023/05/28 07:31:22;;;;;;;1.20;1.10;;;16.50;50.10;;;;;;5075525;28;20492;-80
2023/05/28 07:33:49;;;;;;;4.55;1.80;;;16.70;50.10;;;;;;5093575;28;20031;-84
2023/05/28 07:36:15;;;;;;;2.88;1.38;;;16.70;50.30;;;;;;5071792;28;20023;-79
2023/05/28 07:38:44;;;;;;;4.07;1.20;;;16.80;49.30;;;;;;5071470;28;20028;-81
2023/05/28 07:41:10;;;;;;;5.55;1.60;;;16.90;49.20;;;;;;5073191;28;20074;-79
2023/05/28 07:43:35;;;;;;;2.05;1.40;;;16.90;50.00;;;;;;5091749;28;20408;-79
2023/05/28 07:46:01;;;;;;;4.90;1.85;;;17.10;50.00;;;;;;5091347;28;20035;-79
2023/05/28 07:48:27;;;;;;;2.65;1.30;;;17.10;49.90;;;;;;5064278;28;20026;-79
2023/05/28 07:50:53;;;;;;;2.47;1.40;;;17.10;49.40;;;;;;5089603;28;20048;-79
2023/05/28 07:53:18;;;;;;;3.13;1.48;;;17.10;49.20;;;;;;5073027;28;20048;-79
2023/05/28 07:55:44;;;;;;;3.55;1.35;;;17.20;49.60;;;;;;5072434;28;20008;-79
2023/05/28 07:58:12;;;;;;;4.03;1.67;;;17.20;49.90;;;;;;5090856;28;20059;-80
2023/05/28 08:00:38;;;;;;;4.55;1.20;;;17.20;49.00;;;;;;5090449;28;20017;-80
2023/05/28 08:03:05;;;;;;;3.63;1.60;;;17.20;49.30;;;;;;5072032;28;20020;-80
2023/05/28 08:05:30;;;;;;;4.05;1.30;;;17.30;49.70;;;;;;5091277;28;20455;-80
2023/05/28 08:07:56;;;;;;;1.52;1.20;;;17.20;48.90;;;;;;5091656;28;20032;-80
2023/05/28 08:10:21;;;;;;;2.47;1.85;;;17.20;48.80;;;;;;5073772;28;20054;-80
2023/05/28 08:12:47;;;;;;;4.18;1.45;;;17.40;49.70;;;;;;5074321;28;20024;-80
2023/05/28 08:15:13;;;;;;;3.42;1.27;;;17.40;48.80;;;;;;5074688;28;20054;-82
2023/05/28 08:17:38;;;;;;;5.07;1.77;;;17.50;48.10;;;;;;5073215;28;20016;-82
2023/05/28 08:20:06;;;;;;;4.72;1.77;;;17.60;48.60;;;;;;5073980;28;20024;-82
2023/05/28 08:22:31;;;;;;;5.60;2.00;;;17.40;47.70;;;;;;5092524;28;20039;-82
2023/05/28 08:24:57;;;;;;;2.90;1.67;;;17.40;47.50;;;;;;5092008;28;20469;-83
2023/05/28 08:27:22;;;;;;;5.18;1.67;;;17.40;47.70;;;;;;5092025;28;20510;-84
2023/05/28 08:29:48;;;;;;;5.03;1.60;;;17.40;48.20;;;;;;5074021;28;20385;-83
2023/05/28 08:32:13;;;;;;;5.00;1.60;;;17.50;47.80;;;;;;5092360;28;20024;-83
2023/05/28 08:34:39;;;;;;;6.15;2.00;;;17.60;47.40;;;;;;5093294;28;20381;-83
2023/05/28 08:37:06;;;;;;;4.35;1.40;;;17.60;47.40;;;;;;5074772;28;20031;-83
2023/05/28 08:39:32;;;;;;;3.25;1.42;;;17.80;47.20;;;;;;5092931;28;20423;-82
2023/05/28 08:41:57;;;;;;;2.15;1.00;;;17.80;47.50;;;;;;5074674;28;20028;-84
2023/05/28 08:44:23;;;;;;;2.25;1.20;;;17.70;47.50;;;;;;5074815;28;20016;-80
2023/05/28 08:46:50;;;;;;;5.30;1.33;;;17.70;47.60;;;;;;5092688;28;20124;-80
2023/05/28 08:49:18;;;;;;;4.65;1.45;;;17.70;45.80;;;;;;5074925;28;20020;-80
2023/05/28 08:51:46;;;;;;;1.48;1.38;;;17.90;46.90;;;;;;5074761;28;20024;-85
2023/05/28 08:54:14;;;;;;;2.90;1.80;;;17.80;46.10;;;;;;5092724;28;20078;-83
2023/05/28 08:56:40;;;;;;;10.75;1.95;;;17.80;45.30;;;;;;5088339;28;20069;-84
2023/05/28 08:59:07;;;;;;;8.15;1.30;;;17.80;46.00;;;;;;5091714;28;20035;-84
2023/05/28 09:01:33;;;;;;;5.47;1.52;;;18.00;47.40;;;;;;5091681;28;20012;-84
2023/05/28 09:03:59;;;;;;;3.33;2.28;;;18.10;46.50;;;;;;5091832;28;20470;-84
2023/05/28 09:06:25;;;;;;;2.72;1.40;;;18.30;46.40;;;;;;5091648;28;20036;-84
2023/05/28 09:08:52;;;;;;;1.98;1.20;;;18.40;46.00;;;;;;5066213;28;20016;-84
2023/05/28 09:11:18;;;;;;;8.25;1.67;;;18.40;45.50;;;;;;5091944;28;20091;-84
2023/05/28 09:13:48;;;;;;;2.30;1.40;;;18.20;46.10;;;;;;5073786;28;20434;-84
2023/05/28 09:16:24;;;;;;;5.63;2.13;;;18.20;45.80;;;;;;5095311;28;20016;-85
2023/05/28 09:18:51;;;;;;;4.50;1.30;;;18.20;45.90;;;;;;5073723;28;20389;-80
2023/05/28 09:21:18;;;;;;;1.40;1.23;;;18.40;47.20;;;;;;5095692;28;20027;-81
2023/05/28 09:23:46;;;;;;;3.67;1.60;;;18.30;46.50;;;;;;5095729;28;20028;-80
2023/05/28 09:26:11;;;;;;;2.47;1.50;;;18.40;47.20;;;;;;5077400;28;20024;-80
2023/05/28 09:28:42;;;;;;;4.35;1.40;;;18.50;47.10;;;;;;5077102;28;20111;-81
2023/05/28 09:31:07;;;;;;;6.10;1.63;;;18.40;46.00;;;;;;5095727;28;20362;-81
2023/05/28 09:33:33;;;;;;;1.30;1.20;;;18.40;46.10;;;;;;5077519;28;20118;-81
2023/05/28 09:36:00;;;;;;;3.25;1.30;;;18.50;46.90;;;;;;5095682;28;20032;-81
2023/05/28 09:38:27;;;;;;;2.22;1.50;;;18.70;48.50;;;;;;5075997;28;20085;-82
2023/05/28 09:40:56;;;;;;;4.30;1.40;;;18.60;46.60;;;;;;5093867;28;20024;-80
2023/05/28 09:43:29;;;;;;;2.85;1.42;;;18.70;46.90;;;;;;5093669;28;20436;-81
2023/05/28 09:46:07;;;;;;;4.05;1.80;;;18.80;47.00;;;;;;5094027;28;20027;-81
2023/05/28 09:48:32;;;;;;;3.80;1.88;;;18.90;46.20;;;;;;5094040;28;20024;-81
2023/05/28 09:51:02;;;;;;;5.88;1.90;;;19.00;46.40;;;;;;5094620;28;20032;-81
2023/05/28 09:53:30;;;;;;;2.38;1.60;;;19.00;46.00;;;;;;5076733;28;20031;-80
2023/05/28 09:55:59;;;;;;;3.60;1.52;;;19.20;47.10;;;;;;5095252;28;20031;-80
2023/05/28 09:58:31;;;;;;;2.40;1.60;;;19.00;45.80;;;;;;5077314;28;20024;-80
2023/05/28 10:01:00;;;;;;;2.63;1.30;;;19.00;46.40;;;;;;5095162;28;20027;-81
2023/05/28 10:03:37;;;;;;;3.65;1.73;;;19.00;46.90;;;;;;5095111;28;20020;-80
2023/05/28 10:06:08;;;;;;;2.85;1.88;;;19.00;46.70;;;;;;5076894;28;20047;-81
2023/05/28 10:08:38;;;;;;;1.90;1.42;;;19.10;45.60;;;;;;5094729;28;20020;-81
2023/05/28 10:11:07;;;;;;;3.92;1.88;;;18.90;46.40;;;;;;5095130;28;20473;-81
2023/05/28 10:13:34;;;;;;;2.95;1.45;;;19.20;45.80;;;;;;5076862;28;20024;-81
2023/05/28 10:16:01;;;;;;;2.22;1.58;;;19.20;46.60;;;;;;5076769;28;20024;-81
2023/05/28 10:18:27;;;;;;;4.93;1.83;;;19.20;46.50;;;;;;5094690;28;20016;-81
2023/05/28 10:20:53;;;;;;;2.40;1.40;;;19.20;46.10;;;;;;5094790;28;20096;-82
2023/05/28 10:23:21;;;;;;;4.68;1.58;;;19.20;47.30;;;;;;5094852;28;20103;-82
2023/05/28 10:25:47;;;;;;;3.35;1.55;;;19.00;45.10;;;;;;5094067;28;20089;-81
2023/05/28 10:28:15;;;;;;;3.85;1.70;;;19.10;46.10;;;;;;5094440;28;20020;-81
2023/05/28 10:30:41;;;;;;;5.13;1.55;;;18.80;44.70;;;;;;5076346;28;20034;-80
2023/05/28 10:33:16;;;;;;;4.25;1.40;;;18.90;45.40;;;;;;5076427;28;20017;-81
2023/05/28 10:35:53;;;;;;;1.77;1.40;;;18.90;46.50;;;;;;5076467;28;20026;-82
2023/05/28 10:38:19;;;;;;;4.78;1.65;;;19.20;45.50;;;;;;5094470;28;20020;-81
2023/05/28 10:40:45;;;;;;;2.10;1.85;;;19.30;45.40;;;;;;5094244;28;20097;-81
2023/05/28 10:43:37;;;;;;;1.50;1.40;;;19.30;45.30;;;;;;5076024;28;20107;-81
2023/05/28 10:46:23;;;;;;;7.18;1.65;;;19.30;44.60;;;;;;5094520;28;20064;-81
2023/05/28 10:49:16;;;;;;;3.97;2.00;;;18.90;44.50;;;;;;5065908;28;20500;-81
2023/05/28 10:51:57;;;;;;;5.20;1.33;;;18.80;44.80;;;;;;5064615;28;20045;-82
2023/05/28 10:54:29;;;;;;;1.65;1.33;;;18.80;44.90;;;;;;5076172;28;20082;-82
2023/05/28 10:57:10;;;;;;;4.05;1.55;;;18.80;44.30;;;;;;5074968;28;20166;-82
2023/05/28 10:59:49;;;;;;;4.25;1.55;;;18.90;44.30;;;;;;5093195;28;20051;-80
2023/05/28 11:02:25;;;;;;;2.28;1.55;;;19.00;44.00;;;;;;5075129;28;20536;-81
2023/05/28 11:05:00;;;;;;;1.98;1.10;;;19.50;44.50;;;;;;5075247;28;20431;-81
2023/05/28 11:07:40;;;;;;;4.53;1.95;;;19.40;44.80;;;;;;5073941;28;20047;-81
2023/05/28 11:10:11;;;;;;;4.35;2.20;;;19.60;44.90;;;;;;5089507;28;20060;-81
2023/05/28 11:12:39;;;;;;;3.10;1.80;;;19.80;44.60;;;;;;5080934;28;20476;-81
2023/05/28 11:15:06;;;;;;;3.08;1.50;;;19.60;43.80;;;;;;5065125;28;20372;-80
2023/05/28 11:17:37;;;;;;;4.50;1.95;;;19.80;44.20;;;;;;5075083;28;20511;-81
2023/05/28 11:20:03;;;;;;;2.08;1.52;;;20.00;43.40;;;;;;5054977;28;20055;-80
2023/05/28 11:22:35;;;;;;;2.13;1.58;;;20.10;44.30;;;;;;5053854;28;20040;-80
2023/05/28 11:25:08;;;;;;;1.40;1.30;;;20.20;43.30;;;;;;5081920;28;20028;-80
2023/05/28 11:27:35;;;;;;;3.80;1.50;;;20.10;43.60;;;;;;5074195;28;20050;-80
2023/05/28 11:30:08;;;;;;;3.65;1.58;;;20.00;42.10;;;;;;5093025;28;20025;-80
2023/05/28 11:32:34;;;;;;;5.53;1.42;;;20.00;44.10;;;;;;5092372;28;20087;-80
2023/05/28 11:35:00;;;;;;;3.85;1.55;;;20.20;43.90;;;;;;5092978;28;20138;-79
2023/05/28 11:37:35;;;;;;;5.28;1.63;;;20.00;42.80;;;;;;5090889;28;20115;-79
2023/05/28 11:40:07;;;;;;;5.13;1.90;;;19.90;43.00;;;;;;5074751;28;20024;-82
2023/05/28 11:42:34;;;;;;;4.32;1.30;;;20.20;45.10;;;;;;5092357;28;20482;-80
2023/05/28 11:44:59;;;;;;;1.73;1.17;;;20.00;43.60;;;;;;5092950;28;20024;-80
2023/05/28 11:47:26;;;;;;;2.15;1.15;;;19.70;43.40;;;;;;5092092;28;20047;-81
2023/05/28 11:49:52;;;;;;;3.30;1.35;;;19.60;43.90;;;;;;5092729;28;20048;-80
2023/05/28 11:52:20;;;;;;;2.75;1.52;;;19.60;44.30;;;;;;5073634;28;20029;-80
2023/05/28 11:54:51;;;;;;;5.18;1.75;;;19.60;42.90;;;;;;5092445;28;20493;-81
2023/05/28 11:57:24;;;;;;;3.15;1.75;;;19.80;44.00;;;;;;5092351;28;20075;-80
2023/05/28 11:59:56;;;;;;;1.55;1.20;;;19.70;43.60;;;;;;5094041;28;20493;-79
2023/05/28 12:02:23;;;;;;;3.70;1.70;;;19.90;44.30;;;;;;5063898;28;20422;-81
2023/05/28 12:05:00;;;;;;;4.00;1.70;;;19.80;43.40;;;;;;5093233;28;20032;-80
2023/05/28 12:07:34;;;;;;;3.65;1.98;;;19.90;42.30;;;;;;5074740;28;20135;-81
2023/05/28 12:10:09;;;;;;;5.63;1.40;;;20.00;43.30;;;;;;5093239;28;20075;-80
2023/05/28 12:12:40;;;;;;;3.08;1.77;;;20.10;43.60;;;;;;5075002;28;20024;-80
2023/05/28 12:15:06;;;;;;;2.13;1.58;;;20.30;43.00;;;;;;5093231;28;20485;-79
2023/05/28 12:17:40;;;;;;;4.97;2.17;;;20.30;42.70;;;;;;5074971;28;20031;-80
2023/05/28 12:20:14;;;;;;;3.35;1.55;;;19.90;41.80;;;;;;5071837;28;20032;-80
2023/05/28 12:22:40;;;;;;;4.18;1.67;;;20.10;41.60;;;;;;5072119;28;20107;-80
2023/05/28 12:25:07;;;;;;;3.53;1.52;;;19.80;41.00;;;;;;5072579;28;20074;-80
2023/05/28 12:27:33;;;;;;;1.63;1.38;;;19.60;41.30;;;;;;5054351;28;20489;-81
2023/05/28 12:29:59;;;;;;;2.72;1.58;;;19.60;41.70;;;;;;5072975;28;20028;-80
2023/05/28 12:32:25;;;;;;;3.28;1.45;;;19.70;41.40;;;;;;5072627;28;20025;-80
2023/05/28 12:34:56;;;;;;;2.67;1.40;;;19.60;40.90;;;;;;5072764;28;20035;-80
2023/05/28 12:37:22;;;;;;;1.70;1.60;;;19.90;41.40;;;;;;5053845;28;20104;-80
2023/05/28 12:39:48;;;;;;;1.70;1.48;;;19.90;41.30;;;;;;5069689;28;20028;-80
2023/05/28 12:42:14;;;;;;;3.38;1.40;;;20.10;41.60;;;;;;5051169;28;20017;-80
2023/05/28 12:44:40;;;;;;;2.72;1.77;;;20.30;41.70;;;;;;5052175;28;20024;-81
2023/05/28 12:47:06;;;;;;;3.42;1.73;;;20.30;40.40;;;;;;5052520;28;20033;-80
2023/05/28 12:49:32;;;;;;;3.55;1.40;;;20.40;40.50;;;;;;5073448;28;20070;-80